sensor_id;sensor_type;location;lat;lon;timestamp;P1;durP1;ratioP1;P2;durP2;ratioP2
76978;SDS011;65911;47.502;19.148;2023-07-31T00:00:28;2.17;;;1.17;;
76978;SDS011;65911;47.502;19.148;2023-07-31T00:03:30;2.00;;;1.60;;
76978;SDS011;65911;47.502;19.148;2023-07-31T00:06:33;1.77;;;1.38;;
76978;SDS011;65911;47.502;19.148;2023-07-31T00:09:35;2.03;;;1.10;;
76978;SDS011;65911;47.502;19.148;2023-07-31T00:12:42;1.70;;;1.40;;
76978;SDS011;65911;47.502;19.148;2023-07-31T00:15:45;2.45;;;1.77;;
76978;SDS011;65911;47.502;19.148;2023-07-31T00:18:47;2.42;;;1.77;;
76978;SDS011;65911;47.502;19.148;2023-07-31T00:21:49;1.65;;;1.30;;
76978;SDS011;65911;47.502;19.148;2023-07-31T00:24:51;3.60;;;1.60;;
76978;SDS011;65911;47.502;19.148;2023-07-31T00:27:53;2.28;;;1.45;;
76978;SDS011;65911;47.502;19.148;2023-07-31T00:30:56;1.73;;;1.30;;
76978;SDS011;65911;47.502;19.148;2023-07-31T00:34:00;2.03;;;1.40;;
76978;SDS011;65911;47.502;19.148;2023-07-31T00:37:02;2.10;;;1.25;;
76978;SDS011;65911;47.502;19.148;2023-07-31T00:40:05;1.67;;;1.40;;
76978;SDS011;65911;47.502;19.148;2023-07-31T00:43:08;1.35;;;1.02;;
76978;SDS011;65911;47.502;19.148;2023-07-31T00:46:10;2.50;;;1.60;;
76978;SDS011;65911;47.502;19.148;2023-07-31T00:49:12;2.35;;;1.48;;
76978;SDS011;65911;47.502;19.148;2023-07-31T00:52:15;1.58;;;1.10;;
76978;SDS011;65911;47.502;19.148;2023-07-31T00:55:17;2.72;;;1.60;;
76978;SDS011;65911;47.502;19.148;2023-07-31T00:58:20;2.28;;;1.40;;
76978;SDS011;65911;47.502;19.148;2023-07-31T01:01:22;1.73;;;1.20;;
76978;SDS011;65911;47.502;19.148;2023-07-31T01:04:25;2.25;;;1.60;;
76978;SDS011;65911;47.502;19.148;2023-07-31T01:07:34;2.40;;;1.20;;
76978;SDS011;65911;47.502;19.148;2023-07-31T01:10:45;3.00;;;1.67;;
76978;SDS011;65911;47.502;19.148;2023-07-31T01:13:50;1.80;;;1.65;;
76978;SDS011;65911;47.502;19.148;2023-07-31T01:16:52;1.85;;;1.65;;
76978;SDS011;65911;47.502;19.148;2023-07-31T01:19:55;1.85;;;1.38;;
76978;SDS011;65911;47.502;19.148;2023-07-31T01:23:05;1.70;;;1.45;;
76978;SDS011;65911;47.502;19.148;2023-07-31T01:26:19;1.52;;;1.38;;
76978;SDS011;65911;47.502;19.148;2023-07-31T01:29:29;2.53;;;1.48;;
76978;SDS011;65911;47.502;19.148;2023-07-31T01:32:39;1.53;;;1.20;;
76978;SDS011;65911;47.502;19.148;2023-07-31T01:35:44;2.13;;;1.92;;
76978;SDS011;65911;47.502;19.148;2023-07-31T01:38:48;2.10;;;1.63;;
76978;SDS011;65911;47.502;19.148;2023-07-31T01:41:50;2.27;;;1.60;;
76978;SDS011;65911;47.502;19.148;2023-07-31T01:44:53;3.00;;;1.67;;
76978;SDS011;65911;47.502;19.148;2023-07-31T01:47:55;2.35;;;1.80;;
76978;SDS011;65911;47.502;19.148;2023-07-31T01:51:00;2.47;;;1.98;;
76978;SDS011;65911;47.502;19.148;2023-07-31T01:54:02;3.47;;;2.20;;
76978;SDS011;65911;47.502;19.148;2023-07-31T01:57:05;2.90;;;2.10;;
76978;SDS011;65911;47.502;19.148;2023-07-31T02:00:08;2.97;;;2.13;;
76978;SDS011;65911;47.502;19.148;2023-07-31T02:03:13;3.50;;;1.97;;
76978;SDS011;65911;47.502;19.148;2023-07-31T02:06:15;3.05;;;2.00;;
76978;SDS011;65911;47.502;19.148;2023-07-31T02:09:18;2.75;;;2.10;;
76978;SDS011;65911;47.502;19.148;2023-07-31T02:12:20;2.47;;;2.10;;
76978;SDS011;65911;47.502;19.148;2023-07-31T02:15:22;2.80;;;2.00;;
76978;SDS011;65911;47.502;19.148;2023-07-31T02:18:24;3.25;;;1.60;;
76978;SDS011;65911;47.502;19.148;2023-07-31T02:21:27;2.88;;;2.00;;
76978;SDS011;65911;47.502;19.148;2023-07-31T02:24:29;3.67;;;1.67;;
76978;SDS011;65911;47.502;19.148;2023-07-31T02:27:32;2.95;;;2.15;;
76978;SDS011;65911;47.502;19.148;2023-07-31T02:30:35;3.05;;;2.10;;
76978;SDS011;65911;47.502;19.148;2023-07-31T02:33:37;2.07;;;1.77;;
76978;SDS011;65911;47.502;19.148;2023-07-31T02:36:39;2.22;;;1.75;;
76978;SDS011;65911;47.502;19.148;2023-07-31T02:39:42;2.30;;;1.52;;
76978;SDS011;65911;47.502;19.148;2023-07-31T02:42:44;3.23;;;1.83;;
76978;SDS011;65911;47.502;19.148;2023-07-31T02:45:57;2.88;;;1.45;;
76978;SDS011;65911;47.502;19.148;2023-07-31T02:48:59;2.58;;;1.90;;
76978;SDS011;65911;47.502;19.148;2023-07-31T02:52:01;2.85;;;1.95;;
76978;SDS011;65911;47.502;19.148;2023-07-31T02:55:04;2.95;;;2.22;;
76978;SDS011;65911;47.502;19.148;2023-07-31T02:58:06;3.33;;;1.88;;
76978;SDS011;65911;47.502;19.148;2023-07-31T03:01:08;3.28;;;1.95;;
76978;SDS011;65911;47.502;19.148;2023-07-31T03:04:10;1.77;;;1.53;;
76978;SDS011;65911;47.502;19.148;2023-07-31T03:07:13;3.17;;;1.60;;
76978;SDS011;65911;47.502;19.148;2023-07-31T03:10:15;1.67;;;1.25;;
76978;SDS011;65911;47.502;19.148;2023-07-31T03:13:17;2.83;;;1.80;;
76978;SDS011;65911;47.502;19.148;2023-07-31T03:16:19;2.40;;;1.52;;
76978;SDS011;65911;47.502;19.148;2023-07-31T03:19:22;3.30;;;1.65;;
76978;SDS011;65911;47.502;19.148;2023-07-31T03:22:24;3.53;;;2.00;;
76978;SDS011;65911;47.502;19.148;2023-07-31T03:25:26;2.15;;;1.92;;
76978;SDS011;65911;47.502;19.148;2023-07-31T03:28:29;2.13;;;1.63;;
76978;SDS011;65911;47.502;19.148;2023-07-31T03:31:31;2.60;;;1.80;;
76978;SDS011;65911;47.502;19.148;2023-07-31T03:34:34;2.23;;;1.40;;
76978;SDS011;65911;47.502;19.148;2023-07-31T03:37:36;5.60;;;2.10;;
76978;SDS011;65911;47.502;19.148;2023-07-31T03:40:38;3.08;;;1.50;;
76978;SDS011;65911;47.502;19.148;2023-07-31T03:43:41;4.00;;;1.73;;
76978;SDS011;65911;47.502;19.148;2023-07-31T03:46:43;2.30;;;1.67;;
76978;SDS011;65911;47.502;19.148;2023-07-31T03:49:45;2.38;;;1.55;;
76978;SDS011;65911;47.502;19.148;2023-07-31T03:52:47;3.33;;;1.70;;
76978;SDS011;65911;47.502;19.148;2023-07-31T03:55:49;2.10;;;1.80;;
76978;SDS011;65911;47.502;19.148;2023-07-31T03:58:51;1.98;;;1.77;;
76978;SDS011;65911;47.502;19.148;2023-07-31T04:01:54;4.35;;;2.00;;
76978;SDS011;65911;47.502;19.148;2023-07-31T04:04:56;2.13;;;1.20;;
76978;SDS011;65911;47.502;19.148;2023-07-31T04:07:58;2.50;;;1.90;;
76978;SDS011;65911;47.502;19.148;2023-07-31T04:11:01;4.32;;;1.45;;
76978;SDS011;65911;47.502;19.148;2023-07-31T04:14:03;1.90;;;1.37;;
76978;SDS011;65911;47.502;19.148;2023-07-31T04:17:05;6.60;;;1.70;;
76978;SDS011;65911;47.502;19.148;2023-07-31T04:20:08;2.63;;;1.40;;
76978;SDS011;65911;47.502;19.148;2023-07-31T04:23:10;2.20;;;1.35;;
76978;SDS011;65911;47.502;19.148;2023-07-31T04:26:12;3.65;;;1.55;;
76978;SDS011;65911;47.502;19.148;2023-07-31T04:29:15;2.25;;;1.40;;
76978;SDS011;65911;47.502;19.148;2023-07-31T04:32:17;4.93;;;1.30;;
76978;SDS011;65911;47.502;19.148;2023-07-31T04:35:23;2.40;;;1.10;;
76978;SDS011;65911;47.502;19.148;2023-07-31T04:38:25;2.60;;;1.35;;
76978;SDS011;65911;47.502;19.148;2023-07-31T04:41:27;1.90;;;1.42;;
76978;SDS011;65911;47.502;19.148;2023-07-31T04:44:30;2.80;;;1.40;;
76978;SDS011;65911;47.502;19.148;2023-07-31T04:47:32;2.20;;;1.15;;
76978;SDS011;65911;47.502;19.148;2023-07-31T04:50:34;4.47;;;0.90;;
76978;SDS011;65911;47.502;19.148;2023-07-31T04:53:36;2.53;;;1.27;;
76978;SDS011;65911;47.502;19.148;2023-07-31T04:56:39;1.33;;;1.13;;
76978;SDS011;65911;47.502;19.148;2023-07-31T04:59:41;1.50;;;1.15;;
76978;SDS011;65911;47.502;19.148;2023-07-31T05:02:44;2.05;;;1.20;;
76978;SDS011;65911;47.502;19.148;2023-07-31T05:05:46;2.20;;;1.13;;
76978;SDS011;65911;47.502;19.148;2023-07-31T05:08:48;1.30;;;1.20;;
76978;SDS011;65911;47.502;19.148;2023-07-31T05:11:50;1.42;;;0.82;;
76978;SDS011;65911;47.502;19.148;2023-07-31T05:14:52;2.23;;;1.10;;
76978;SDS011;65911;47.502;19.148;2023-07-31T05:17:55;2.78;;;0.90;;
76978;SDS011;65911;47.502;19.148;2023-07-31T05:20:57;2.03;;;1.00;;
76978;SDS011;65911;47.502;19.148;2023-07-31T05:23:59;3.58;;;1.30;;
76978;SDS011;65911;47.502;19.148;2023-07-31T05:27:02;1.27;;;1.02;;
76978;SDS011;65911;47.502;19.148;2023-07-31T05:30:04;3.22;;;1.20;;
76978;SDS011;65911;47.502;19.148;2023-07-31T05:33:07;2.08;;;1.40;;
76978;SDS011;65911;47.502;19.148;2023-07-31T05:36:16;2.30;;;1.30;;
76978;SDS011;65911;47.502;19.148;2023-07-31T05:39:32;1.38;;;1.10;;
76978;SDS011;65911;47.502;19.148;2023-07-31T05:42:40;2.50;;;1.10;;
76978;SDS011;65911;47.502;19.148;2023-07-31T05:45:42;1.30;;;1.07;;
76978;SDS011;65911;47.502;19.148;2023-07-31T05:48:57;2.83;;;1.30;;
76978;SDS011;65911;47.502;19.148;2023-07-31T05:51:59;2.25;;;1.00;;
76978;SDS011;65911;47.502;19.148;2023-07-31T05:55:07;3.75;;;0.82;;
76978;SDS011;65911;47.502;19.148;2023-07-31T05:58:15;2.10;;;1.00;;
76978;SDS011;65911;47.502;19.148;2023-07-31T06:01:19;2.47;;;1.30;;
76978;SDS011;65911;47.502;19.148;2023-07-31T06:04:26;3.08;;;1.30;;
76978;SDS011;65911;47.502;19.148;2023-07-31T06:07:29;2.37;;;1.00;;
76978;SDS011;65911;47.502;19.148;2023-07-31T06:10:36;3.97;;;1.13;;
76978;SDS011;65911;47.502;19.148;2023-07-31T06:13:40;2.67;;;0.77;;
76978;SDS011;65911;47.502;19.148;2023-07-31T06:16:45;3.53;;;0.87;;
76978;SDS011;65911;47.502;19.148;2023-07-31T06:19:47;2.70;;;0.85;;
76978;SDS011;65911;47.502;19.148;2023-07-31T06:22:55;1.25;;;0.73;;
76978;SDS011;65911;47.502;19.148;2023-07-31T06:26:06;1.85;;;0.90;;
76978;SDS011;65911;47.502;19.148;2023-07-31T06:29:15;1.25;;;0.75;;
76978;SDS011;65911;47.502;19.148;2023-07-31T06:32:18;2.05;;;1.10;;
76978;SDS011;65911;47.502;19.148;2023-07-31T06:35:25;1.73;;;1.00;;
76978;SDS011;65911;47.502;19.148;2023-07-31T06:38:53;2.83;;;0.90;;
76978;SDS011;65911;47.502;19.148;2023-07-31T06:42:02;1.70;;;0.70;;
76978;SDS011;65911;47.502;19.148;2023-07-31T06:45:05;1.23;;;0.73;;
76978;SDS011;65911;47.502;19.148;2023-07-31T06:48:13;1.67;;;1.10;;
76978;SDS011;65911;47.502;19.148;2023-07-31T06:51:17;1.60;;;0.82;;
76978;SDS011;65911;47.502;19.148;2023-07-31T06:54:32;3.58;;;0.75;;
76978;SDS011;65911;47.502;19.148;2023-07-31T06:57:36;2.50;;;0.93;;
76978;SDS011;65911;47.502;19.148;2023-07-31T07:00:55;2.88;;;1.30;;
76978;SDS011;65911;47.502;19.148;2023-07-31T07:04:10;2.35;;;1.20;;
76978;SDS011;65911;47.502;19.148;2023-07-31T07:07:25;1.50;;;1.00;;
76978;SDS011;65911;47.502;19.148;2023-07-31T07:10:27;1.60;;;0.83;;
76978;SDS011;65911;47.502;19.148;2023-07-31T07:13:43;2.53;;;0.98;;
76978;SDS011;65911;47.502;19.148;2023-07-31T07:16:50;2.45;;;0.88;;
76978;SDS011;65911;47.502;19.148;2023-07-31T07:19:57;1.10;;;1.00;;
76978;SDS011;65911;47.502;19.148;2023-07-31T07:23:06;4.05;;;1.40;;
76978;SDS011;65911;47.502;19.148;2023-07-31T07:26:14;2.17;;;0.68;;
76978;SDS011;65911;47.502;19.148;2023-07-31T07:29:19;2.35;;;0.90;;
76978;SDS011;65911;47.502;19.148;2023-07-31T07:32:23;3.22;;;1.00;;
76978;SDS011;65911;47.502;19.148;2023-07-31T07:35:33;2.17;;;1.25;;
76978;SDS011;65911;47.502;19.148;2023-07-31T07:38:42;3.90;;;1.20;;
76978;SDS011;65911;47.502;19.148;2023-07-31T07:41:50;1.27;;;0.73;;
76978;SDS011;65911;47.502;19.148;2023-07-31T07:44:58;1.98;;;1.05;;
76978;SDS011;65911;47.502;19.148;2023-07-31T07:48:08;2.65;;;1.00;;
76978;SDS011;65911;47.502;19.148;2023-07-31T07:51:17;2.37;;;1.10;;
76978;SDS011;65911;47.502;19.148;2023-07-31T07:54:28;2.53;;;1.00;;
76978;SDS011;65911;47.502;19.148;2023-07-31T07:57:40;2.92;;;0.82;;
76978;SDS011;65911;47.502;19.148;2023-07-31T08:00:47;2.75;;;1.00;;
76978;SDS011;65911;47.502;19.148;2023-07-31T08:03:55;2.08;;;1.20;;
76978;SDS011;65911;47.502;19.148;2023-07-31T08:06:57;2.17;;;0.95;;
76978;SDS011;65911;47.502;19.148;2023-07-31T08:10:03;4.07;;;1.40;;
76978;SDS011;65911;47.502;19.148;2023-07-31T08:13:06;4.50;;;1.20;;
76978;SDS011;65911;47.502;19.148;2023-07-31T08:16:08;4.68;;;1.20;;
76978;SDS011;65911;47.502;19.148;2023-07-31T08:19:17;2.40;;;0.90;;
76978;SDS011;65911;47.502;19.148;2023-07-31T08:22:22;2.77;;;0.90;;
76978;SDS011;65911;47.502;19.148;2023-07-31T08:25:44;2.38;;;0.80;;
76978;SDS011;65911;47.502;19.148;2023-07-31T08:29:04;2.17;;;0.85;;
76978;SDS011;65911;47.502;19.148;2023-07-31T08:32:21;1.75;;;0.95;;
76978;SDS011;65911;47.502;19.148;2023-07-31T08:35:29;2.55;;;1.00;;
76978;SDS011;65911;47.502;19.148;2023-07-31T08:38:32;2.10;;;1.00;;
76978;SDS011;65911;47.502;19.148;2023-07-31T08:41:39;1.73;;;0.90;;
76978;SDS011;65911;47.502;19.148;2023-07-31T08:45:00;1.50;;;0.93;;
76978;SDS011;65911;47.502;19.148;2023-07-31T08:48:03;2.80;;;0.60;;
76978;SDS011;65911;47.502;19.148;2023-07-31T08:51:06;2.67;;;0.80;;
76978;SDS011;65911;47.502;19.148;2023-07-31T08:54:08;3.37;;;0.90;;
76978;SDS011;65911;47.502;19.148;2023-07-31T08:57:11;1.70;;;0.80;;
76978;SDS011;65911;47.502;19.148;2023-07-31T09:00:13;2.33;;;0.95;;
76978;SDS011;65911;47.502;19.148;2023-07-31T09:03:17;1.85;;;0.80;;
76978;SDS011;65911;47.502;19.148;2023-07-31T09:06:20;4.00;;;1.00;;
76978;SDS011;65911;47.502;19.148;2023-07-31T09:09:24;3.88;;;1.05;;
76978;SDS011;65911;47.502;19.148;2023-07-31T09:12:27;1.00;;;0.60;;
76978;SDS011;65911;47.502;19.148;2023-07-31T09:15:30;1.60;;;0.70;;
76978;SDS011;65911;47.502;19.148;2023-07-31T09:18:54;2.75;;;1.00;;
76978;SDS011;65911;47.502;19.148;2023-07-31T09:22:00;1.63;;;0.68;;
76978;SDS011;65911;47.502;19.148;2023-07-31T09:25:22;3.03;;;1.00;;
76978;SDS011;65911;47.502;19.148;2023-07-31T09:28:31;2.20;;;0.80;;
76978;SDS011;65911;47.502;19.148;2023-07-31T09:31:38;3.65;;;1.08;;
76978;SDS011;65911;47.502;19.148;2023-07-31T09:34:42;3.97;;;0.95;;
76978;SDS011;65911;47.502;19.148;2023-07-31T09:37:44;2.58;;;0.93;;
76978;SDS011;65911;47.502;19.148;2023-07-31T09:40:50;1.70;;;0.90;;
76978;SDS011;65911;47.502;19.148;2023-07-31T09:43:53;6.55;;;1.35;;
76978;SDS011;65911;47.502;19.148;2023-07-31T09:46:56;2.10;;;0.90;;
76978;SDS011;65911;47.502;19.148;2023-07-31T09:49:58;4.15;;;1.10;;
76978;SDS011;65911;47.502;19.148;2023-07-31T09:53:00;3.30;;;1.00;;
76978;SDS011;65911;47.502;19.148;2023-07-31T09:56:03;3.47;;;1.10;;
76978;SDS011;65911;47.502;19.148;2023-07-31T09:59:05;3.30;;;0.82;;
76978;SDS011;65911;47.502;19.148;2023-07-31T10:02:09;3.20;;;1.02;;
76978;SDS011;65911;47.502;19.148;2023-07-31T10:05:17;7.13;;;1.05;;
76978;SDS011;65911;47.502;19.148;2023-07-31T10:08:20;2.03;;;0.90;;
76978;SDS011;65911;47.502;19.148;2023-07-31T10:11:23;2.85;;;1.05;;
76978;SDS011;65911;47.502;19.148;2023-07-31T10:14:27;4.07;;;1.00;;
76978;SDS011;65911;47.502;19.148;2023-07-31T10:17:30;3.20;;;0.77;;
76978;SDS011;65911;47.502;19.148;2023-07-31T10:20:33;3.70;;;0.98;;
76978;SDS011;65911;47.502;19.148;2023-07-31T10:23:36;3.13;;;1.20;;
76978;SDS011;65911;47.502;19.148;2023-07-31T10:26:38;2.60;;;1.00;;
76978;SDS011;65911;47.502;19.148;2023-07-31T10:29:42;1.73;;;1.00;;
76978;SDS011;65911;47.502;19.148;2023-07-31T10:32:45;1.83;;;1.30;;
76978;SDS011;65911;47.502;19.148;2023-07-31T10:36:11;5.97;;;1.42;;
76978;SDS011;65911;47.502;19.148;2023-07-31T10:39:33;2.45;;;1.00;;
76978;SDS011;65911;47.502;19.148;2023-07-31T10:42:47;3.50;;;1.00;;
76978;SDS011;65911;47.502;19.148;2023-07-31T10:46:08;2.22;;;1.23;;
76978;SDS011;65911;47.502;19.148;2023-07-31T10:49:13;2.17;;;0.70;;
76978;SDS011;65911;47.502;19.148;2023-07-31T10:52:22;1.73;;;0.80;;
76978;SDS011;65911;47.502;19.148;2023-07-31T10:58:32;2.17;;;1.00;;
76978;SDS011;65911;47.502;19.148;2023-07-31T11:05:09;1.42;;;0.88;;
76978;SDS011;65911;47.502;19.148;2023-07-31T11:08:12;3.97;;;1.17;;
76978;SDS011;65911;47.502;19.148;2023-07-31T11:11:25;2.47;;;1.00;;
76978;SDS011;65911;47.502;19.148;2023-07-31T11:14:27;3.83;;;1.00;;
76978;SDS011;65911;47.502;19.148;2023-07-31T11:17:29;3.70;;;0.77;;
76978;SDS011;65911;47.502;19.148;2023-07-31T11:20:32;2.10;;;0.73;;
76978;SDS011;65911;47.502;19.148;2023-07-31T11:23:36;4.70;;;0.80;;
76978;SDS011;65911;47.502;19.148;2023-07-31T11:26:38;3.17;;;0.73;;
76978;SDS011;65911;47.502;19.148;2023-07-31T11:29:41;1.73;;;0.80;;
76978;SDS011;65911;47.502;19.148;2023-07-31T11:32:43;2.05;;;0.77;;
76978;SDS011;65911;47.502;19.148;2023-07-31T11:35:46;3.08;;;1.00;;
76978;SDS011;65911;47.502;19.148;2023-07-31T11:38:50;2.30;;;0.90;;
76978;SDS011;65911;47.502;19.148;2023-07-31T11:41:58;2.05;;;1.00;;
76978;SDS011;65911;47.502;19.148;2023-07-31T11:45:04;2.00;;;0.73;;
76978;SDS011;65911;47.502;19.148;2023-07-31T11:48:07;2.30;;;0.70;;
76978;SDS011;65911;47.502;19.148;2023-07-31T11:51:10;3.13;;;1.00;;
76978;SDS011;65911;47.502;19.148;2023-07-31T11:54:12;3.47;;;0.93;;
76978;SDS011;65911;47.502;19.148;2023-07-31T11:57:16;1.60;;;0.80;;
76978;SDS011;65911;47.502;19.148;2023-07-31T12:00:18;2.33;;;0.80;;
76978;SDS011;65911;47.502;19.148;2023-07-31T12:03:21;3.20;;;0.85;;
76978;SDS011;65911;47.502;19.148;2023-07-31T12:06:32;1.27;;;0.60;;
76978;SDS011;65911;47.502;19.148;2023-07-31T12:09:35;2.78;;;0.88;;
76978;SDS011;65911;47.502;19.148;2023-07-31T12:12:37;2.90;;;0.73;;
76978;SDS011;65911;47.502;19.148;2023-07-31T12:15:40;2.85;;;0.98;;
76978;SDS011;65911;47.502;19.148;2023-07-31T12:18:43;3.30;;;0.90;;
76978;SDS011;65911;47.502;19.148;2023-07-31T12:21:46;2.20;;;0.87;;
76978;SDS011;65911;47.502;19.148;2023-07-31T12:24:48;2.15;;;0.70;;
76978;SDS011;65911;47.502;19.148;2023-07-31T12:27:50;1.55;;;0.85;;
76978;SDS011;65911;47.502;19.148;2023-07-31T12:30:56;2.17;;;0.63;;
76978;SDS011;65911;47.502;19.148;2023-07-31T12:33:59;2.28;;;0.73;;
76978;SDS011;65911;47.502;19.148;2023-07-31T12:37:01;1.20;;;0.70;;
76978;SDS011;65911;47.502;19.148;2023-07-31T12:40:03;3.15;;;0.52;;
76978;SDS011;65911;47.502;19.148;2023-07-31T12:43:10;3.03;;;0.70;;
76978;SDS011;65911;47.502;19.148;2023-07-31T12:46:12;1.17;;;0.60;;
76978;SDS011;65911;47.502;19.148;2023-07-31T12:49:15;1.70;;;0.57;;
76978;SDS011;65911;47.502;19.148;2023-07-31T12:52:17;1.33;;;0.77;;
76978;SDS011;65911;47.502;19.148;2023-07-31T12:55:19;2.03;;;0.80;;
76978;SDS011;65911;47.502;19.148;2023-07-31T12:58:22;2.92;;;0.73;;
76978;SDS011;65911;47.502;19.148;2023-07-31T13:01:24;3.00;;;0.88;;
76978;SDS011;65911;47.502;19.148;2023-07-31T13:04:26;2.10;;;1.30;;
76978;SDS011;65911;47.502;19.148;2023-07-31T13:07:29;1.73;;;0.85;;
76978;SDS011;65911;47.502;19.148;2023-07-31T13:10:32;4.50;;;1.00;;
76978;SDS011;65911;47.502;19.148;2023-07-31T13:13:34;1.37;;;0.77;;
76978;SDS011;65911;47.502;19.148;2023-07-31T13:16:37;1.55;;;0.77;;
76978;SDS011;65911;47.502;19.148;2023-07-31T13:19:39;2.75;;;0.80;;
76978;SDS011;65911;47.502;19.148;2023-07-31T13:22:41;2.03;;;0.90;;
76978;SDS011;65911;47.502;19.148;2023-07-31T13:25:47;2.13;;;0.60;;
76978;SDS011;65911;47.502;19.148;2023-07-31T13:28:49;2.38;;;0.80;;
76978;SDS011;65911;47.502;19.148;2023-07-31T13:31:52;2.53;;;1.02;;
76978;SDS011;65911;47.502;19.148;2023-07-31T13:34:54;2.95;;;0.98;;
76978;SDS011;65911;47.502;19.148;2023-07-31T13:37:57;1.73;;;0.60;;
76978;SDS011;65911;47.502;19.148;2023-07-31T13:40:59;3.83;;;0.80;;
76978;SDS011;65911;47.502;19.148;2023-07-31T13:44:01;3.80;;;0.80;;
76978;SDS011;65911;47.502;19.148;2023-07-31T13:47:03;2.28;;;0.70;;
76978;SDS011;65911;47.502;19.148;2023-07-31T13:50:06;2.00;;;0.60;;
76978;SDS011;65911;47.502;19.148;2023-07-31T13:53:08;1.08;;;0.75;;
76978;SDS011;65911;47.502;19.148;2023-07-31T13:56:11;3.10;;;0.87;;
76978;SDS011;65911;47.502;19.148;2023-07-31T13:59:13;2.75;;;0.50;;
76978;SDS011;65911;47.502;19.148;2023-07-31T14:02:18;3.28;;;0.70;;
76978;SDS011;65911;47.502;19.148;2023-07-31T14:05:20;2.15;;;0.73;;
76978;SDS011;65911;47.502;19.148;2023-07-31T14:08:22;2.70;;;1.10;;
76978;SDS011;65911;47.502;19.148;2023-07-31T14:11:24;1.73;;;0.70;;
76978;SDS011;65911;47.502;19.148;2023-07-31T14:14:27;2.13;;;0.45;;
76978;SDS011;65911;47.502;19.148;2023-07-31T14:17:29;2.27;;;0.70;;
76978;SDS011;65911;47.502;19.148;2023-07-31T14:20:32;3.45;;;0.82;;
76978;SDS011;65911;47.502;19.148;2023-07-31T14:23:34;2.55;;;1.08;;
76978;SDS011;65911;47.502;19.148;2023-07-31T14:26:36;2.47;;;0.80;;
76978;SDS011;65911;47.502;19.148;2023-07-31T14:29:39;3.27;;;0.73;;
76978;SDS011;65911;47.502;19.148;2023-07-31T14:32:41;3.35;;;0.90;;
76978;SDS011;65911;47.502;19.148;2023-07-31T14:35:44;2.25;;;0.70;;
76978;SDS011;65911;47.502;19.148;2023-07-31T14:38:46;2.20;;;0.53;;
76978;SDS011;65911;47.502;19.148;2023-07-31T14:41:48;1.90;;;0.90;;
76978;SDS011;65911;47.502;19.148;2023-07-31T14:44:51;2.35;;;0.90;;
76978;SDS011;65911;47.502;19.148;2023-07-31T14:47:53;1.55;;;0.75;;
76978;SDS011;65911;47.502;19.148;2023-07-31T14:50:55;1.40;;;0.60;;
76978;SDS011;65911;47.502;19.148;2023-07-31T14:53:57;2.13;;;0.80;;
76978;SDS011;65911;47.502;19.148;2023-07-31T14:56:59;3.83;;;0.93;;
76978;SDS011;65911;47.502;19.148;2023-07-31T15:00:02;1.60;;;0.88;;
76978;SDS011;65911;47.502;19.148;2023-07-31T15:03:09;2.90;;;0.70;;
76978;SDS011;65911;47.502;19.148;2023-07-31T15:06:11;2.33;;;0.73;;
76978;SDS011;65911;47.502;19.148;2023-07-31T15:09:14;3.20;;;0.60;;
76978;SDS011;65911;47.502;19.148;2023-07-31T15:12:17;2.20;;;0.63;;
76978;SDS011;65911;47.502;19.148;2023-07-31T15:15:21;1.77;;;0.50;;
76978;SDS011;65911;47.502;19.148;2023-07-31T15:18:24;2.30;;;0.80;;
76978;SDS011;65911;47.502;19.148;2023-07-31T15:21:26;1.75;;;0.70;;
76978;SDS011;65911;47.502;19.148;2023-07-31T15:24:28;3.20;;;0.77;;
76978;SDS011;65911;47.502;19.148;2023-07-31T15:27:30;2.55;;;0.80;;
76978;SDS011;65911;47.502;19.148;2023-07-31T15:30:35;2.22;;;0.73;;
76978;SDS011;65911;47.502;19.148;2023-07-31T15:33:38;2.53;;;1.00;;
76978;SDS011;65911;47.502;19.148;2023-07-31T15:36:41;2.07;;;0.80;;
76978;SDS011;65911;47.502;19.148;2023-07-31T15:39:43;4.68;;;0.80;;
76978;SDS011;65911;47.502;19.148;2023-07-31T15:42:45;1.63;;;0.60;;
76978;SDS011;65911;47.502;19.148;2023-07-31T15:45:48;2.50;;;0.73;;
76978;SDS011;65911;47.502;19.148;2023-07-31T15:48:50;1.37;;;0.87;;
76978;SDS011;65911;47.502;19.148;2023-07-31T15:51:55;2.30;;;0.80;;
76978;SDS011;65911;47.502;19.148;2023-07-31T15:54:57;1.92;;;0.80;;
76978;SDS011;65911;47.502;19.148;2023-07-31T15:57:59;3.42;;;0.70;;
76978;SDS011;65911;47.502;19.148;2023-07-31T16:01:02;4.00;;;0.83;;
76978;SDS011;65911;47.502;19.148;2023-07-31T16:04:04;2.08;;;0.55;;
76978;SDS011;65911;47.502;19.148;2023-07-31T16:07:06;1.77;;;0.70;;
76978;SDS011;65911;47.502;19.148;2023-07-31T16:10:11;2.50;;;0.70;;
76978;SDS011;65911;47.502;19.148;2023-07-31T16:13:14;2.70;;;0.97;;
76978;SDS011;65911;47.502;19.148;2023-07-31T16:16:16;3.22;;;0.82;;
76978;SDS011;65911;47.502;19.148;2023-07-31T16:19:18;1.67;;;0.70;;
76978;SDS011;65911;47.502;19.148;2023-07-31T16:22:20;1.40;;;0.73;;
76978;SDS011;65911;47.502;19.148;2023-07-31T16:25:23;3.83;;;0.80;;
76978;SDS011;65911;47.502;19.148;2023-07-31T16:28:25;3.42;;;0.88;;
76978;SDS011;65911;47.502;19.148;2023-07-31T16:31:27;3.13;;;0.80;;
76978;SDS011;65911;47.502;19.148;2023-07-31T16:34:59;1.70;;;0.60;;
76978;SDS011;65911;47.502;19.148;2023-07-31T16:38:01;1.27;;;0.50;;
76978;SDS011;65911;47.502;19.148;2023-07-31T16:41:06;1.80;;;0.60;;
76978;SDS011;65911;47.502;19.148;2023-07-31T16:44:08;1.23;;;0.80;;
76978;SDS011;65911;47.502;19.148;2023-07-31T16:47:11;2.67;;;0.82;;
76978;SDS011;65911;47.502;19.148;2023-07-31T16:50:13;1.20;;;0.63;;
76978;SDS011;65911;47.502;19.148;2023-07-31T16:53:15;2.67;;;0.60;;
76978;SDS011;65911;47.502;19.148;2023-07-31T16:56:17;4.05;;;0.90;;
76978;SDS011;65911;47.502;19.148;2023-07-31T16:59:20;2.85;;;0.82;;
76978;SDS011;65911;47.502;19.148;2023-07-31T17:02:22;1.95;;;0.82;;
76978;SDS011;65911;47.502;19.148;2023-07-31T17:05:25;2.33;;;0.93;;
76978;SDS011;65911;47.502;19.148;2023-07-31T17:08:28;2.67;;;0.50;;
76978;SDS011;65911;47.502;19.148;2023-07-31T17:11:30;2.67;;;0.90;;
76978;SDS011;65911;47.502;19.148;2023-07-31T17:14:32;3.30;;;0.80;;
76978;SDS011;65911;47.502;19.148;2023-07-31T17:17:34;1.48;;;0.65;;
76978;SDS011;65911;47.502;19.148;2023-07-31T17:20:37;1.20;;;0.80;;
76978;SDS011;65911;47.502;19.148;2023-07-31T17:23:39;5.28;;;0.68;;
76978;SDS011;65911;47.502;19.148;2023-07-31T17:26:41;3.55;;;0.93;;
76978;SDS011;65911;47.502;19.148;2023-07-31T17:29:44;2.83;;;1.05;;
76978;SDS011;65911;47.502;19.148;2023-07-31T17:32:46;2.37;;;0.60;;
76978;SDS011;65911;47.502;19.148;2023-07-31T17:35:48;1.23;;;0.30;;
76978;SDS011;65911;47.502;19.148;2023-07-31T17:38:50;1.58;;;0.60;;
76978;SDS011;65911;47.502;19.148;2023-07-31T17:41:53;1.88;;;0.70;;
76978;SDS011;65911;47.502;19.148;2023-07-31T17:44:56;2.42;;;0.75;;
76978;SDS011;65911;47.502;19.148;2023-07-31T17:47:58;2.60;;;0.63;;
76978;SDS011;65911;47.502;19.148;2023-07-31T17:51:01;1.90;;;0.60;;
76978;SDS011;65911;47.502;19.148;2023-07-31T17:54:03;3.40;;;0.70;;
76978;SDS011;65911;47.502;19.148;2023-07-31T17:57:07;2.67;;;0.80;;
76978;SDS011;65911;47.502;19.148;2023-07-31T18:00:09;1.73;;;0.40;;
76978;SDS011;65911;47.502;19.148;2023-07-31T18:03:12;4.37;;;0.90;;
76978;SDS011;65911;47.502;19.148;2023-07-31T18:06:15;2.63;;;0.60;;
76978;SDS011;65911;47.502;19.148;2023-07-31T18:09:17;3.28;;;0.50;;
76978;SDS011;65911;47.502;19.148;2023-07-31T18:12:19;2.17;;;0.77;;
76978;SDS011;65911;47.502;19.148;2023-07-31T18:15:21;2.75;;;0.95;;
76978;SDS011;65911;47.502;19.148;2023-07-31T18:18:23;2.10;;;0.90;;